createdAt,value
2022-10-26T00:03:01.073Z,21.90
2022-10-26T00:08:04.047Z,21.50
2022-10-26T00:13:10.821Z,18.00
2022-10-26T00:23:16.138Z,19.60
2022-10-26T00:28:18.847Z,23.30
2022-10-26T00:33:21.555Z,21.60
2022-10-26T00:38:24.722Z,20.80
2022-10-26T00:43:27.356Z,25.30
2022-10-26T00:48:34.522Z,29.90
2022-10-26T00:53:38.013Z,21.00
2022-10-26T00:58:41.156Z,21.80
2022-10-26T01:03:45.045Z,22.60
2022-10-26T01:08:48.547Z,26.90
2022-10-26T01:13:54.405Z,25.60
2022-10-26T01:19:23.438Z,27.10
2022-10-26T01:24:29.090Z,23.20
2022-10-26T01:30:05.939Z,26.90
2022-10-26T01:35:35.461Z,29.60
2022-10-26T01:40:46.570Z,26.30
2022-10-26T01:45:51.820Z,24.60
2022-10-26T01:50:57.632Z,27.00
2022-10-26T01:56:01.784Z,27.70
2022-10-26T02:01:46.242Z,24.80
2022-10-26T02:07:15.473Z,24.80
2022-10-26T02:12:52.799Z,22.00
2022-10-26T02:18:11.998Z,25.30
2022-10-26T02:23:15.494Z,23.10
2022-10-26T02:28:22.693Z,24.70
2022-10-26T02:33:30.634Z,23.70
2022-10-26T02:38:35.690Z,23.30
2022-10-26T02:43:45.039Z,14.70
2022-10-26T02:48:47.809Z,25.70
2022-10-26T02:53:50.423Z,27.00
2022-10-26T02:58:57.983Z,24.70
2022-10-26T03:04:01.096Z,25.60
2022-10-26T03:09:04.379Z,33.70
2022-10-26T03:14:07.064Z,33.40
2022-10-26T03:19:09.787Z,32.30
2022-10-26T03:24:12.480Z,25.20
2022-10-26T03:29:15.263Z,20.60
2022-10-26T03:34:17.974Z,23.80
2022-10-26T03:39:20.676Z,23.20
2022-10-26T03:44:23.645Z,29.60
2022-10-26T03:49:26.357Z,30.30
2022-10-26T03:54:29.032Z,28.40
2022-10-26T03:59:31.689Z,40.20
2022-10-26T04:04:34.447Z,28.30
2022-10-26T04:09:37.217Z,25.80
2022-10-26T04:14:39.881Z,25.80
2022-10-26T04:19:42.586Z,23.60
2022-10-26T04:24:45.320Z,21.50
2022-10-26T04:29:48.052Z,14.50
2022-10-26T04:34:50.903Z,18.60
2022-10-26T04:39:53.668Z,18.70
2022-10-26T04:44:56.544Z,18.60
2022-10-26T04:49:59.168Z,16.80
2022-10-26T04:55:06.043Z,14.30
2022-10-26T05:00:09.500Z,16.30
2022-10-26T05:05:14.273Z,17.30
2022-10-26T05:10:18.019Z,19.60
2022-10-26T05:15:21.324Z,16.80
2022-10-26T05:20:29.658Z,17.20
2022-10-26T05:25:35.578Z,18.80
2022-10-26T05:30:38.309Z,26.70
2022-10-26T05:35:41.248Z,26.60
2022-10-26T05:40:53.017Z,29.40
2022-10-26T05:45:56.059Z,28.30
2022-10-26T05:51:02.838Z,30.00
2022-10-26T06:02:08.732Z,34.70
2022-10-26T06:07:14.541Z,20.10
2022-10-26T06:12:19.626Z,71.90
2022-10-26T06:17:59.425Z,17.90
2022-10-26T06:23:17.348Z,14.60
2022-10-26T06:28:45.064Z,19.30
2022-10-26T06:33:52.582Z,18.80
2022-10-26T06:39:08.965Z,23.80
2022-10-26T06:44:21.228Z,18.70
2022-10-26T06:49:41.651Z,14.50
2022-10-26T06:54:47.343Z,16.00
2022-10-26T07:00:09.308Z,14.60
2022-10-26T07:05:13.345Z,16.30
2022-10-26T07:10:25.226Z,16.50
2022-10-26T07:15:28.337Z,13.00
2022-10-26T07:20:35.408Z,19.40
2022-10-26T07:25:40.570Z,17.20
2022-10-26T07:30:43.846Z,24.70
2022-10-26T07:35:47.045Z,26.30
2022-10-26T07:40:50.661Z,19.00
2022-10-26T07:45:53.456Z,17.10
2022-10-26T07:50:56.225Z,16.10
2022-10-26T07:56:00.140Z,27.50
2022-10-26T08:01:11.713Z,24.70
2022-10-26T08:06:14.784Z,23.50
2022-10-26T08:11:18.152Z,29.40
2022-10-26T08:16:22.263Z,28.50
2022-10-26T08:21:36.067Z,21.20
2022-10-26T08:26:43.166Z,24.20
2022-10-26T08:31:48.841Z,17.80
2022-10-26T08:36:54.062Z,18.20
2022-10-26T08:42:05.725Z,18.10
2022-10-26T08:52:32.895Z,16.10
2022-10-26T08:57:39.663Z,15.00
2022-10-26T09:02:42.404Z,13.70
2022-10-26T09:07:57.407Z,14.10
2022-10-26T09:13:24.869Z,12.50
2022-10-26T09:24:15.843Z,18.90
2022-10-26T09:29:21.339Z,20.60
2022-10-26T09:34:30.106Z,18.00
2022-10-26T09:39:39.590Z,18.70
2022-10-26T09:45:01.599Z,22.20
2022-10-26T09:50:54.152Z,27.90
2022-10-26T09:56:13.218Z,17.80
2022-10-26T10:01:35.532Z,20.60
2022-10-26T10:06:41.411Z,12.00
2022-10-26T10:11:56.921Z,11.90
2022-10-26T10:17:08.627Z,15.70
2022-10-26T10:22:22.500Z,17.00
2022-10-26T10:27:27.741Z,17.60
2022-10-26T10:32:38.640Z,21.60
2022-10-26T10:38:01.031Z,13.20
2022-10-26T10:43:14.340Z,19.10
2022-10-26T10:48:23.389Z,20.10
2022-10-26T10:53:31.448Z,24.30
2022-10-26T10:58:44.197Z,22.30
2022-10-26T11:09:24.310Z,16.40
2022-10-26T11:14:33.276Z,21.50
2022-10-26T11:19:47.483Z,16.40
2022-10-26T11:25:13.505Z,14.80
2022-10-26T11:30:25.759Z,23.00
2022-10-26T11:35:32.353Z,14.00
2022-10-26T11:40:40.913Z,18.30
2022-10-26T11:45:48.006Z,21.60
2022-10-26T11:50:54.395Z,20.20
2022-10-26T12:01:09.413Z,24.10
2022-10-26T12:06:15.393Z,12.50
2022-10-26T12:11:36.312Z,19.80
2022-10-26T12:17:07.253Z,15.20
2022-10-26T12:22:14.103Z,23.00
2022-10-26T12:27:35.416Z,25.80
2022-10-26T12:32:40.309Z,17.50
2022-10-26T12:37:48.495Z,18.30
2022-10-26T12:42:53.942Z,21.40
2022-10-26T12:48:34.675Z,25.50
2022-10-26T12:53:45.808Z,22.10
2022-10-26T12:59:04.991Z,20.30
2022-10-26T13:04:25.530Z,21.00
2022-10-26T13:09:33.511Z,21.20
2022-10-26T13:14:55.626Z,18.20
2022-10-26T13:20:02.640Z,29.70
2022-10-26T13:25:06.536Z,30.90
2022-10-26T13:30:09.211Z,31.40
2022-10-26T13:35:13.741Z,40.90
2022-10-26T13:40:19.641Z,33.00
2022-10-26T13:45:29.706Z,34.40
2022-10-26T13:51:04.408Z,39.80
2022-10-26T13:56:28.486Z,41.80
2022-10-26T14:01:31.735Z,31.70
2022-10-26T14:06:39.512Z,27.40
2022-10-26T14:11:59.222Z,27.10
2022-10-26T14:17:05.409Z,27.10
2022-10-26T14:22:08.256Z,28.20
2022-10-26T14:27:19.190Z,23.10
2022-10-26T14:32:22.988Z,21.30
2022-10-26T14:37:54.250Z,23.70
2022-10-26T14:43:03.777Z,23.00
2022-10-26T14:48:07.780Z,24.90
2022-10-26T14:53:20.019Z,22.20
2022-10-26T14:58:34.097Z,22.70
2022-10-26T15:03:36.846Z,25.20
2022-10-26T15:08:55.945Z,22.70
2022-10-26T15:14:01.499Z,24.10
2022-10-26T15:19:11.079Z,24.90
2022-10-26T15:24:22.147Z,22.30
2022-10-26T15:29:38.680Z,18.30
2022-10-26T15:34:41.455Z,25.70
2022-10-26T15:39:44.154Z,24.30
2022-10-26T15:44:46.883Z,24.30
2022-10-26T15:49:49.568Z,26.00
2022-10-26T15:54:52.245Z,25.90
2022-10-26T15:59:54.915Z,27.80
2022-10-26T16:04:57.637Z,27.00
2022-10-26T16:10:00.555Z,30.80
2022-10-26T16:15:05.879Z,29.40
2022-10-26T16:20:14.670Z,28.90
2022-10-26T16:25:20.122Z,30.00
2022-10-26T16:30:26.990Z,29.60
2022-10-26T16:35:32.372Z,31.00
2022-10-26T16:40:35.149Z,28.00
2022-10-26T16:45:41.021Z,27.70
2022-10-26T16:50:43.774Z,30.60
2022-10-26T16:55:46.548Z,32.50
2022-10-26T17:00:54.979Z,30.20
2022-10-26T17:05:59.867Z,21.90
2022-10-26T17:11:08.965Z,33.10
2022-10-26T17:16:21.474Z,25.60
2022-10-26T17:21:34.510Z,31.80
2022-10-26T17:26:37.535Z,32.30
2022-10-26T17:31:40.335Z,34.40
2022-10-26T17:36:43.150Z,34.80
2022-10-26T17:41:45.899Z,31.50
2022-10-26T17:46:48.582Z,33.10
2022-10-26T17:51:51.407Z,33.60
2022-10-26T17:56:54.089Z,35.20
2022-10-26T18:01:57.074Z,34.80
2022-10-26T18:06:59.914Z,30.80
2022-10-26T18:12:02.741Z,32.50
2022-10-26T18:17:05.436Z,36.40
2022-10-26T18:22:08.142Z,34.20
2022-10-26T18:27:10.870Z,35.30
2022-10-26T18:32:13.612Z,38.00
2022-10-26T18:37:16.302Z,35.80
2022-10-26T18:42:18.993Z,30.60
2022-10-26T18:47:21.661Z,30.70
2022-10-26T18:52:27.254Z,31.10
2022-10-26T18:57:30.075Z,29.10
2022-10-26T19:02:32.790Z,32.80
2022-10-26T19:07:38.022Z,34.90
2022-10-26T19:12:40.706Z,32.20
2022-10-26T19:17:43.452Z,32.70
2022-10-26T19:22:46.182Z,30.80
2022-10-26T19:27:49.223Z,34.70
2022-10-26T19:32:52.771Z,27.10
2022-10-26T19:37:55.866Z,27.10
2022-10-26T19:42:59.168Z,31.60
2022-10-26T19:48:01.859Z,33.70
2022-10-26T19:53:04.565Z,26.80
2022-10-26T19:58:07.275Z,33.90
2022-10-26T20:03:11.859Z,29.20
2022-10-26T20:08:14.546Z,28.70
2022-10-26T20:13:17.240Z,36.00
2022-10-26T20:18:21.295Z,46.30
2022-10-26T20:23:24.615Z,40.00
2022-10-26T20:28:27.397Z,37.70
2022-10-26T20:33:30.156Z,34.20
2022-10-26T20:38:33.177Z,36.80
2022-10-26T20:43:39.462Z,37.10
2022-10-26T20:48:42.920Z,37.20
2022-10-26T20:53:52.754Z,32.00
2022-10-26T20:58:58.960Z,38.90
2022-10-26T21:04:03.525Z,40.90
2022-10-26T21:09:07.671Z,35.80
2022-10-26T21:14:10.356Z,32.40
2022-10-26T21:19:13.853Z,32.90
2022-10-26T21:24:16.649Z,30.80
2022-10-26T21:29:19.371Z,33.50
2022-10-26T21:34:22.090Z,32.40
2022-10-26T21:39:24.785Z,31.20
2022-10-26T21:44:42.776Z,33.40
2022-10-26T21:49:45.562Z,35.80
2022-10-26T21:54:48.279Z,31.40
2022-10-26T21:59:51.216Z,35.20
2022-10-26T22:04:54.030Z,36.60
2022-10-26T22:10:10.231Z,39.50
2022-10-26T22:15:13.901Z,36.40
2022-10-26T22:20:16.687Z,40.10
2022-10-26T22:25:19.391Z,41.60
2022-10-26T22:30:22.099Z,39.00
2022-10-26T22:35:29.582Z,41.60
2022-10-26T22:40:32.831Z,42.30
2022-10-26T22:45:35.508Z,41.50
2022-10-26T22:50:38.902Z,36.00
2022-10-26T22:55:42.207Z,38.10
2022-10-26T23:00:44.965Z,37.00
2022-10-26T23:05:48.448Z,44.50
2022-10-26T23:10:51.228Z,41.00
2022-10-26T23:15:53.952Z,36.80
2022-10-26T23:20:56.616Z,36.40
2022-10-26T23:26:04.703Z,38.40
2022-10-26T23:31:08.136Z,38.10
2022-10-26T23:36:11.313Z,44.30
2022-10-26T23:41:14.587Z,43.00
2022-10-26T23:46:17.385Z,37.40
2022-10-26T23:51:20.166Z,39.90
2022-10-26T23:56:23.027Z,38.50
